sensor_id;sensor_type;location;lat;lon;timestamp;P1;durP1;ratioP1;P2;durP2;ratioP2
39896;SDS011;25567;48.276;14.242;2023-09-18T00:00:18;13.05;;;5.80;;
39896;SDS011;25567;48.276;14.242;2023-09-18T00:02:44;9.10;;;5.38;;
39896;SDS011;25567;48.276;14.242;2023-09-18T00:05:11;13.85;;;5.80;;
39896;SDS011;25567;48.276;14.242;2023-09-18T00:07:42;10.77;;;5.15;;
39896;SDS011;25567;48.276;14.242;2023-09-18T00:10:10;9.18;;;5.10;;
39896;SDS011;25567;48.276;14.242;2023-09-18T00:12:36;10.10;;;5.63;;
39896;SDS011;25567;48.276;14.242;2023-09-18T00:15:03;9.77;;;5.18;;
39896;SDS011;25567;48.276;14.242;2023-09-18T00:17:30;15.98;;;5.60;;
39896;SDS011;25567;48.276;14.242;2023-09-18T00:19:57;15.98;;;5.93;;
39896;SDS011;25567;48.276;14.242;2023-09-18T00:22:24;9.32;;;5.53;;
39896;SDS011;25567;48.276;14.242;2023-09-18T00:24:50;9.57;;;5.43;;
39896;SDS011;25567;48.276;14.242;2023-09-18T00:27:17;10.05;;;5.53;;
39896;SDS011;25567;48.276;14.242;2023-09-18T00:29:44;12.82;;;6.25;;
39896;SDS011;25567;48.276;14.242;2023-09-18T00:32:10;10.43;;;5.95;;
39896;SDS011;25567;48.276;14.242;2023-09-18T00:34:37;11.55;;;5.95;;
39896;SDS011;25567;48.276;14.242;2023-09-18T00:37:04;13.85;;;5.82;;
39896;SDS011;25567;48.276;14.242;2023-09-18T00:39:30;11.48;;;5.38;;
39896;SDS011;25567;48.276;14.242;2023-09-18T00:41:57;10.70;;;5.55;;
39896;SDS011;25567;48.276;14.242;2023-09-18T00:44:24;9.95;;;5.90;;
39896;SDS011;25567;48.276;14.242;2023-09-18T00:46:53;11.27;;;6.18;;
39896;SDS011;25567;48.276;14.242;2023-09-18T00:49:22;12.38;;;6.88;;
39896;SDS011;25567;48.276;14.242;2023-09-18T00:51:49;12.43;;;5.75;;
39896;SDS011;25567;48.276;14.242;2023-09-18T00:54:17;15.00;;;5.78;;
39896;SDS011;25567;48.276;14.242;2023-09-18T00:56:45;9.80;;;5.65;;
39896;SDS011;25567;48.276;14.242;2023-09-18T00:59:12;9.50;;;5.90;;
39896;SDS011;25567;48.276;14.242;2023-09-18T01:01:40;9.48;;;5.70;;
39896;SDS011;25567;48.276;14.242;2023-09-18T01:04:08;12.65;;;6.40;;
39896;SDS011;25567;48.276;14.242;2023-09-18T01:06:35;18.63;;;6.30;;
39896;SDS011;25567;48.276;14.242;2023-09-18T01:09:02;14.38;;;6.15;;
39896;SDS011;25567;48.276;14.242;2023-09-18T01:11:35;13.93;;;5.80;;
39896;SDS011;25567;48.276;14.242;2023-09-18T01:14:06;13.38;;;6.30;;
39896;SDS011;25567;48.276;14.242;2023-09-18T01:16:44;12.75;;;6.40;;
39896;SDS011;25567;48.276;14.242;2023-09-18T01:19:16;15.23;;;6.03;;
39896;SDS011;25567;48.276;14.242;2023-09-18T01:21:44;12.65;;;6.95;;
39896;SDS011;25567;48.276;14.242;2023-09-18T01:24:11;11.32;;;7.60;;
39896;SDS011;25567;48.276;14.242;2023-09-18T01:26:38;14.80;;;6.65;;
39896;SDS011;25567;48.276;14.242;2023-09-18T01:29:04;15.20;;;7.10;;
39896;SDS011;25567;48.276;14.242;2023-09-18T01:31:31;12.55;;;6.78;;
39896;SDS011;25567;48.276;14.242;2023-09-18T01:33:58;12.52;;;6.55;;
39896;SDS011;25567;48.276;14.242;2023-09-18T01:36:24;10.82;;;6.32;;
39896;SDS011;25567;48.276;14.242;2023-09-18T01:38:52;13.65;;;7.55;;
39896;SDS011;25567;48.276;14.242;2023-09-18T01:41:19;12.65;;;7.80;;
39896;SDS011;25567;48.276;14.242;2023-09-18T01:43:46;11.98;;;7.60;;
39896;SDS011;25567;48.276;14.242;2023-09-18T01:46:12;14.88;;;7.43;;
39896;SDS011;25567;48.276;14.242;2023-09-18T01:48:45;16.30;;;7.05;;
39896;SDS011;25567;48.276;14.242;2023-09-18T01:51:13;18.38;;;7.38;;
39896;SDS011;25567;48.276;14.242;2023-09-18T01:53:39;15.27;;;6.55;;
39896;SDS011;25567;48.276;14.242;2023-09-18T01:56:06;15.10;;;7.18;;
39896;SDS011;25567;48.276;14.242;2023-09-18T01:58:33;15.13;;;7.22;;
39896;SDS011;25567;48.276;14.242;2023-09-18T02:01:00;16.90;;;7.68;;
39896;SDS011;25567;48.276;14.242;2023-09-18T02:03:28;12.27;;;7.10;;
39896;SDS011;25567;48.276;14.242;2023-09-18T02:06:14;14.25;;;6.90;;
39896;SDS011;25567;48.276;14.242;2023-09-18T02:08:41;12.73;;;6.13;;
39896;SDS011;25567;48.276;14.242;2023-09-18T02:11:08;12.05;;;7.82;;
39896;SDS011;25567;48.276;14.242;2023-09-18T02:13:34;16.67;;;8.27;;
39896;SDS011;25567;48.276;14.242;2023-09-18T02:16:01;15.57;;;7.63;;
39896;SDS011;25567;48.276;14.242;2023-09-18T02:18:29;17.50;;;7.75;;
39896;SDS011;25567;48.276;14.242;2023-09-18T02:20:56;21.88;;;8.70;;
39896;SDS011;25567;48.276;14.242;2023-09-18T02:23:23;14.65;;;8.65;;
39896;SDS011;25567;48.276;14.242;2023-09-18T02:25:56;19.52;;;7.85;;
39896;SDS011;25567;48.276;14.242;2023-09-18T02:28:23;14.90;;;7.85;;
39896;SDS011;25567;48.276;14.242;2023-09-18T02:30:49;15.23;;;7.50;;
39896;SDS011;25567;48.276;14.242;2023-09-18T02:33:16;13.77;;;7.38;;
39896;SDS011;25567;48.276;14.242;2023-09-18T02:35:43;11.63;;;7.22;;
39896;SDS011;25567;48.276;14.242;2023-09-18T02:38:10;14.65;;;7.97;;
39896;SDS011;25567;48.276;14.242;2023-09-18T02:40:36;15.00;;;7.45;;
39896;SDS011;25567;48.276;14.242;2023-09-18T02:43:03;20.50;;;7.53;;
39896;SDS011;25567;48.276;14.242;2023-09-18T02:45:29;14.18;;;7.53;;
39896;SDS011;25567;48.276;14.242;2023-09-18T02:47:56;14.77;;;7.90;;
39896;SDS011;25567;48.276;14.242;2023-09-18T02:50:23;16.13;;;7.22;;
39896;SDS011;25567;48.276;14.242;2023-09-18T02:52:49;14.02;;;7.53;;
39896;SDS011;25567;48.276;14.242;2023-09-18T02:55:16;13.23;;;7.28;;
39896;SDS011;25567;48.276;14.242;2023-09-18T02:57:43;15.50;;;8.07;;
39896;SDS011;25567;48.276;14.242;2023-09-18T03:00:10;13.18;;;7.40;;
39896;SDS011;25567;48.276;14.242;2023-09-18T03:02:36;15.15;;;8.00;;
39896;SDS011;25567;48.276;14.242;2023-09-18T03:05:03;16.25;;;8.07;;
39896;SDS011;25567;48.276;14.242;2023-09-18T03:07:30;15.90;;;7.60;;
39896;SDS011;25567;48.276;14.242;2023-09-18T03:09:57;14.82;;;7.65;;
39896;SDS011;25567;48.276;14.242;2023-09-18T03:12:24;15.27;;;8.23;;
39896;SDS011;25567;48.276;14.242;2023-09-18T03:14:50;13.30;;;7.32;;
39896;SDS011;25567;48.276;14.242;2023-09-18T03:17:17;14.85;;;7.88;;
39896;SDS011;25567;48.276;14.242;2023-09-18T03:19:44;12.32;;;6.90;;
39896;SDS011;25567;48.276;14.242;2023-09-18T03:22:13;15.60;;;7.10;;
39896;SDS011;25567;48.276;14.242;2023-09-18T03:24:40;16.98;;;7.85;;
39896;SDS011;25567;48.276;14.242;2023-09-18T03:27:06;15.32;;;7.32;;
39896;SDS011;25567;48.276;14.242;2023-09-18T03:29:33;16.80;;;7.45;;
39896;SDS011;25567;48.276;14.242;2023-09-18T03:31:59;15.48;;;7.78;;
39896;SDS011;25567;48.276;14.242;2023-09-18T03:34:26;14.43;;;7.80;;
39896;SDS011;25567;48.276;14.242;2023-09-18T03:36:53;13.20;;;7.38;;
39896;SDS011;25567;48.276;14.242;2023-09-18T03:39:20;17.63;;;7.22;;
39896;SDS011;25567;48.276;14.242;2023-09-18T03:41:47;12.90;;;7.38;;
39896;SDS011;25567;48.276;14.242;2023-09-18T03:44:13;18.30;;;7.65;;
39896;SDS011;25567;48.276;14.242;2023-09-18T03:46:41;19.42;;;7.93;;
39896;SDS011;25567;48.276;14.242;2023-09-18T03:49:07;13.50;;;7.03;;
39896;SDS011;25567;48.276;14.242;2023-09-18T03:51:34;12.50;;;6.97;;
39896;SDS011;25567;48.276;14.242;2023-09-18T03:54:01;15.85;;;7.43;;
39896;SDS011;25567;48.276;14.242;2023-09-18T03:56:27;12.90;;;7.95;;
39896;SDS011;25567;48.276;14.242;2023-09-18T03:58:54;13.75;;;7.15;;
39896;SDS011;25567;48.276;14.242;2023-09-18T04:01:21;15.88;;;7.93;;
39896;SDS011;25567;48.276;14.242;2023-09-18T04:03:49;16.85;;;8.32;;
39896;SDS011;25567;48.276;14.242;2023-09-18T04:06:16;14.35;;;7.45;;
39896;SDS011;25567;48.276;14.242;2023-09-18T04:08:45;16.15;;;8.38;;
39896;SDS011;25567;48.276;14.242;2023-09-18T04:11:12;25.85;;;8.88;;
39896;SDS011;25567;48.276;14.242;2023-09-18T04:13:39;24.23;;;8.68;;
39896;SDS011;25567;48.276;14.242;2023-09-18T04:16:05;16.38;;;9.38;;
39896;SDS011;25567;48.276;14.242;2023-09-18T04:18:32;17.10;;;8.43;;
39896;SDS011;25567;48.276;14.242;2023-09-18T04:20:59;23.63;;;10.85;;
39896;SDS011;25567;48.276;14.242;2023-09-18T04:23:26;25.77;;;10.73;;
39896;SDS011;25567;48.276;14.242;2023-09-18T04:25:54;17.70;;;9.18;;
39896;SDS011;25567;48.276;14.242;2023-09-18T04:28:21;18.75;;;8.90;;
39896;SDS011;25567;48.276;14.242;2023-09-18T04:30:48;22.77;;;10.13;;
39896;SDS011;25567;48.276;14.242;2023-09-18T04:33:15;15.80;;;8.82;;
39896;SDS011;25567;48.276;14.242;2023-09-18T04:35:43;19.90;;;10.13;;
39896;SDS011;25567;48.276;14.242;2023-09-18T04:38:09;16.05;;;8.55;;
39896;SDS011;25567;48.276;14.242;2023-09-18T04:40:41;15.73;;;8.52;;
39896;SDS011;25567;48.276;14.242;2023-09-18T04:43:08;17.27;;;8.75;;
39896;SDS011;25567;48.276;14.242;2023-09-18T04:45:35;22.33;;;10.23;;
39896;SDS011;25567;48.276;14.242;2023-09-18T04:48:02;22.95;;;10.65;;
39896;SDS011;25567;48.276;14.242;2023-09-18T04:50:29;21.50;;;10.63;;
39896;SDS011;25567;48.276;14.242;2023-09-18T04:52:56;25.80;;;11.70;;
39896;SDS011;25567;48.276;14.242;2023-09-18T04:55:24;23.15;;;10.05;;
39896;SDS011;25567;48.276;14.242;2023-09-18T04:57:50;23.48;;;10.38;;
39896;SDS011;25567;48.276;14.242;2023-09-18T05:00:17;26.60;;;10.23;;
39896;SDS011;25567;48.276;14.242;2023-09-18T05:02:45;21.98;;;11.63;;
39896;SDS011;25567;48.276;14.242;2023-09-18T05:05:11;22.92;;;12.07;;
39896;SDS011;25567;48.276;14.242;2023-09-18T05:07:40;25.45;;;11.57;;
39896;SDS011;25567;48.276;14.242;2023-09-18T05:10:07;22.05;;;10.88;;
39896;SDS011;25567;48.276;14.242;2023-09-18T05:12:33;22.05;;;10.90;;
39896;SDS011;25567;48.276;14.242;2023-09-18T05:15:00;24.73;;;10.70;;
39896;SDS011;25567;48.276;14.242;2023-09-18T05:17:40;24.77;;;9.60;;
39896;SDS011;25567;48.276;14.242;2023-09-18T05:20:09;19.30;;;10.63;;
39896;SDS011;25567;48.276;14.242;2023-09-18T05:22:38;18.25;;;10.23;;
39896;SDS011;25567;48.276;14.242;2023-09-18T05:25:04;22.10;;;9.73;;
39896;SDS011;25567;48.276;14.242;2023-09-18T05:27:33;14.23;;;8.65;;
39896;SDS011;25567;48.276;14.242;2023-09-18T05:29:59;18.15;;;8.73;;
39896;SDS011;25567;48.276;14.242;2023-09-18T05:32:26;17.70;;;9.07;;
39896;SDS011;25567;48.276;14.242;2023-09-18T05:34:53;16.75;;;8.90;;
39896;SDS011;25567;48.276;14.242;2023-09-18T05:37:19;14.90;;;9.30;;
39896;SDS011;25567;48.276;14.242;2023-09-18T05:39:46;17.40;;;8.90;;
39896;SDS011;25567;48.276;14.242;2023-09-18T05:42:12;15.77;;;9.02;;
39896;SDS011;25567;48.276;14.242;2023-09-18T05:44:40;19.35;;;8.95;;
39896;SDS011;25567;48.276;14.242;2023-09-18T05:47:08;17.70;;;8.88;;
39896;SDS011;25567;48.276;14.242;2023-09-18T05:49:35;15.45;;;9.35;;
39896;SDS011;25567;48.276;14.242;2023-09-18T05:52:02;14.52;;;8.32;;
39896;SDS011;25567;48.276;14.242;2023-09-18T05:54:28;19.92;;;9.13;;
39896;SDS011;25567;48.276;14.242;2023-09-18T05:56:55;15.52;;;8.57;;
39896;SDS011;25567;48.276;14.242;2023-09-18T05:59:21;18.17;;;9.93;;
39896;SDS011;25567;48.276;14.242;2023-09-18T06:01:48;17.67;;;9.75;;
39896;SDS011;25567;48.276;14.242;2023-09-18T06:04:15;15.65;;;9.43;;
39896;SDS011;25567;48.276;14.242;2023-09-18T06:06:43;19.33;;;9.88;;
39896;SDS011;25567;48.276;14.242;2023-09-18T06:09:10;15.88;;;9.60;;
39896;SDS011;25567;48.276;14.242;2023-09-18T06:11:36;16.23;;;9.80;;
39896;SDS011;25567;48.276;14.242;2023-09-18T06:14:03;14.38;;;9.55;;
39896;SDS011;25567;48.276;14.242;2023-09-18T06:16:30;12.98;;;9.32;;
39896;SDS011;25567;48.276;14.242;2023-09-18T06:18:57;14.07;;;8.25;;
39896;SDS011;25567;48.276;14.242;2023-09-18T06:21:23;13.65;;;8.10;;
39896;SDS011;25567;48.276;14.242;2023-09-18T06:23:50;13.88;;;8.93;;
39896;SDS011;25567;48.276;14.242;2023-09-18T06:26:18;14.10;;;9.25;;
39896;SDS011;25567;48.276;14.242;2023-09-18T06:28:44;16.55;;;8.70;;
39896;SDS011;25567;48.276;14.242;2023-09-18T06:31:11;17.90;;;8.43;;
39896;SDS011;25567;48.276;14.242;2023-09-18T06:33:37;14.20;;;8.63;;
39896;SDS011;25567;48.276;14.242;2023-09-18T06:36:04;16.40;;;8.85;;
39896;SDS011;25567;48.276;14.242;2023-09-18T06:38:31;15.32;;;8.73;;
39896;SDS011;25567;48.276;14.242;2023-09-18T06:40:57;16.02;;;9.40;;
39896;SDS011;25567;48.276;14.242;2023-09-18T06:43:24;14.70;;;8.23;;
39896;SDS011;25567;48.276;14.242;2023-09-18T06:45:50;14.80;;;8.82;;
39896;SDS011;25567;48.276;14.242;2023-09-18T06:48:17;14.93;;;8.38;;
39896;SDS011;25567;48.276;14.242;2023-09-18T06:50:44;12.43;;;7.32;;
39896;SDS011;25567;48.276;14.242;2023-09-18T06:53:10;13.10;;;7.93;;
39896;SDS011;25567;48.276;14.242;2023-09-18T06:55:37;11.43;;;7.65;;
39896;SDS011;25567;48.276;14.242;2023-09-18T06:58:03;11.93;;;7.43;;
39896;SDS011;25567;48.276;14.242;2023-09-18T07:00:30;21.65;;;7.45;;
39896;SDS011;25567;48.276;14.242;2023-09-18T07:02:56;12.60;;;7.65;;
39896;SDS011;25567;48.276;14.242;2023-09-18T07:05:24;15.25;;;6.97;;
39896;SDS011;25567;48.276;14.242;2023-09-18T07:07:50;15.13;;;7.63;;
39896;SDS011;25567;48.276;14.242;2023-09-18T07:10:17;14.52;;;7.90;;
39896;SDS011;25567;48.276;14.242;2023-09-18T07:12:45;11.95;;;6.85;;
39896;SDS011;25567;48.276;14.242;2023-09-18T07:15:12;11.95;;;6.80;;
39896;SDS011;25567;48.276;14.242;2023-09-18T07:17:38;12.35;;;6.40;;
39896;SDS011;25567;48.276;14.242;2023-09-18T07:20:05;9.82;;;6.38;;
39896;SDS011;25567;48.276;14.242;2023-09-18T07:22:45;11.52;;;6.93;;
39896;SDS011;25567;48.276;14.242;2023-09-18T07:25:12;11.95;;;6.05;;
39896;SDS011;25567;48.276;14.242;2023-09-18T07:27:39;9.40;;;5.88;;
39896;SDS011;25567;48.276;14.242;2023-09-18T07:30:10;9.85;;;6.10;;
39896;SDS011;25567;48.276;14.242;2023-09-18T07:32:39;8.82;;;6.03;;
39896;SDS011;25567;48.276;14.242;2023-09-18T07:35:06;8.70;;;5.55;;
39896;SDS011;25567;48.276;14.242;2023-09-18T07:37:33;9.60;;;5.57;;
39896;SDS011;25567;48.276;14.242;2023-09-18T07:40:05;8.63;;;6.18;;
39896;SDS011;25567;48.276;14.242;2023-09-18T07:42:32;10.57;;;6.72;;
39896;SDS011;25567;48.276;14.242;2023-09-18T07:44:58;14.13;;;6.05;;
39896;SDS011;25567;48.276;14.242;2023-09-18T07:47:25;9.38;;;5.93;;
39896;SDS011;25567;48.276;14.242;2023-09-18T07:49:52;11.05;;;5.93;;
39896;SDS011;25567;48.276;14.242;2023-09-18T07:52:20;14.57;;;6.43;;
39896;SDS011;25567;48.276;14.242;2023-09-18T07:54:47;13.23;;;6.43;;
39896;SDS011;25567;48.276;14.242;2023-09-18T07:57:15;13.35;;;6.22;;
39896;SDS011;25567;48.276;14.242;2023-09-18T07:59:42;13.02;;;6.05;;
39896;SDS011;25567;48.276;14.242;2023-09-18T08:02:08;16.00;;;5.80;;
39896;SDS011;25567;48.276;14.242;2023-09-18T08:04:38;8.57;;;5.22;;
39896;SDS011;25567;48.276;14.242;2023-09-18T08:07:05;8.68;;;5.05;;
39896;SDS011;25567;48.276;14.242;2023-09-18T08:09:33;8.73;;;5.10;;
39896;SDS011;25567;48.276;14.242;2023-09-18T08:12:03;10.48;;;5.28;;
39896;SDS011;25567;48.276;14.242;2023-09-18T08:14:30;6.53;;;4.93;;
39896;SDS011;25567;48.276;14.242;2023-09-18T08:16:57;7.78;;;5.18;;
39896;SDS011;25567;48.276;14.242;2023-09-18T08:19:24;8.88;;;4.45;;
39896;SDS011;25567;48.276;14.242;2023-09-18T08:21:53;6.75;;;4.97;;
39896;SDS011;25567;48.276;14.242;2023-09-18T08:24:20;8.95;;;5.00;;
39896;SDS011;25567;48.276;14.242;2023-09-18T08:26:47;6.80;;;4.57;;
39896;SDS011;25567;48.276;14.242;2023-09-18T08:29:14;6.93;;;4.53;;
39896;SDS011;25567;48.276;14.242;2023-09-18T08:31:41;7.38;;;4.93;;
39896;SDS011;25567;48.276;14.242;2023-09-18T08:34:08;20.35;;;5.22;;
39896;SDS011;25567;48.276;14.242;2023-09-18T08:36:35;10.52;;;4.97;;
39896;SDS011;25567;48.276;14.242;2023-09-18T08:39:02;8.65;;;4.65;;
39896;SDS011;25567;48.276;14.242;2023-09-18T08:41:32;8.07;;;4.70;;
39896;SDS011;25567;48.276;14.242;2023-09-18T08:44:02;8.48;;;4.40;;
39896;SDS011;25567;48.276;14.242;2023-09-18T08:46:30;5.90;;;4.45;;
39896;SDS011;25567;48.276;14.242;2023-09-18T08:48:59;10.70;;;4.63;;
39896;SDS011;25567;48.276;14.242;2023-09-18T08:51:26;15.65;;;4.72;;
39896;SDS011;25567;48.276;14.242;2023-09-18T08:53:53;5.07;;;4.03;;
39896;SDS011;25567;48.276;14.242;2023-09-18T08:56:20;6.85;;;4.70;;
39896;SDS011;25567;48.276;14.242;2023-09-18T08:58:47;7.20;;;4.45;;
39896;SDS011;25567;48.276;14.242;2023-09-18T09:01:14;5.70;;;4.07;;
39896;SDS011;25567;48.276;14.242;2023-09-18T09:03:41;8.10;;;4.55;;
39896;SDS011;25567;48.276;14.242;2023-09-18T09:06:09;7.13;;;3.80;;
39896;SDS011;25567;48.276;14.242;2023-09-18T09:08:36;7.05;;;3.78;;
39896;SDS011;25567;48.276;14.242;2023-09-18T09:11:03;7.95;;;4.03;;
39896;SDS011;25567;48.276;14.242;2023-09-18T09:13:29;7.32;;;4.20;;
39896;SDS011;25567;48.276;14.242;2023-09-18T09:16:07;8.93;;;4.85;;
39896;SDS011;25567;48.276;14.242;2023-09-18T09:18:46;10.68;;;5.38;;
39896;SDS011;25567;48.276;14.242;2023-09-18T09:21:13;6.95;;;4.25;;
39896;SDS011;25567;48.276;14.242;2023-09-18T09:23:47;11.88;;;4.53;;
39896;SDS011;25567;48.276;14.242;2023-09-18T09:26:16;12.48;;;4.40;;
39896;SDS011;25567;48.276;14.242;2023-09-18T09:28:43;6.80;;;4.32;;
39896;SDS011;25567;48.276;14.242;2023-09-18T09:31:10;10.35;;;4.65;;
39896;SDS011;25567;48.276;14.242;2023-09-18T09:33:37;8.43;;;4.80;;
39896;SDS011;25567;48.276;14.242;2023-09-18T09:36:07;6.93;;;4.68;;
39896;SDS011;25567;48.276;14.242;2023-09-18T09:38:34;7.93;;;4.35;;
39896;SDS011;25567;48.276;14.242;2023-09-18T09:41:01;6.05;;;4.32;;
39896;SDS011;25567;48.276;14.242;2023-09-18T09:43:29;8.32;;;4.68;;
39896;SDS011;25567;48.276;14.242;2023-09-18T09:45:57;9.75;;;4.70;;
39896;SDS011;25567;48.276;14.242;2023-09-18T09:48:24;6.13;;;4.55;;
39896;SDS011;25567;48.276;14.242;2023-09-18T09:50:51;10.73;;;4.53;;
39896;SDS011;25567;48.276;14.242;2023-09-18T09:53:19;7.75;;;4.70;;
39896;SDS011;25567;48.276;14.242;2023-09-18T09:55:53;9.13;;;5.35;;
39896;SDS011;25567;48.276;14.242;2023-09-18T09:58:20;14.30;;;5.10;;
39896;SDS011;25567;48.276;14.242;2023-09-18T10:00:52;11.98;;;5.45;;
39896;SDS011;25567;48.276;14.242;2023-09-18T10:03:21;12.23;;;4.60;;
39896;SDS011;25567;48.276;14.242;2023-09-18T10:05:50;15.38;;;5.25;;
39896;SDS011;25567;48.276;14.242;2023-09-18T10:08:22;12.77;;;5.18;;
39896;SDS011;25567;48.276;14.242;2023-09-18T10:10:51;10.10;;;4.82;;
39896;SDS011;25567;48.276;14.242;2023-09-18T10:13:20;16.55;;;5.03;;
39896;SDS011;25567;48.276;14.242;2023-09-18T10:15:50;6.78;;;4.72;;
39896;SDS011;25567;48.276;14.242;2023-09-18T10:18:17;8.63;;;5.15;;
39896;SDS011;25567;48.276;14.242;2023-09-18T10:20:47;11.63;;;5.28;;
39896;SDS011;25567;48.276;14.242;2023-09-18T10:23:19;9.45;;;5.30;;
39896;SDS011;25567;48.276;14.242;2023-09-18T10:25:51;9.82;;;4.75;;
39896;SDS011;25567;48.276;14.242;2023-09-18T10:28:23;11.07;;;5.50;;
39896;SDS011;25567;48.276;14.242;2023-09-18T10:30:50;8.68;;;4.25;;
39896;SDS011;25567;48.276;14.242;2023-09-18T10:33:17;6.95;;;3.97;;
39896;SDS011;25567;48.276;14.242;2023-09-18T10:35:44;8.07;;;4.80;;
39896;SDS011;25567;48.276;14.242;2023-09-18T10:38:12;10.75;;;4.45;;
39896;SDS011;25567;48.276;14.242;2023-09-18T10:40:40;8.70;;;4.65;;
39896;SDS011;25567;48.276;14.242;2023-09-18T10:43:07;12.35;;;5.05;;
39896;SDS011;25567;48.276;14.242;2023-09-18T10:45:37;8.32;;;4.70;;
39896;SDS011;25567;48.276;14.242;2023-09-18T10:48:05;8.25;;;5.00;;
39896;SDS011;25567;48.276;14.242;2023-09-18T10:50:34;10.80;;;5.35;;
39896;SDS011;25567;48.276;14.242;2023-09-18T10:53:01;6.75;;;4.47;;
39896;SDS011;25567;48.276;14.242;2023-09-18T10:55:28;10.43;;;4.85;;
39896;SDS011;25567;48.276;14.242;2023-09-18T10:57:55;8.13;;;5.10;;
39896;SDS011;25567;48.276;14.242;2023-09-18T11:00:26;7.03;;;4.53;;
39896;SDS011;25567;48.276;14.242;2023-09-18T11:02:54;9.10;;;4.32;;
39896;SDS011;25567;48.276;14.242;2023-09-18T11:05:35;7.43;;;4.55;;
39896;SDS011;25567;48.276;14.242;2023-09-18T11:13:29;10.60;;;4.50;;
39896;SDS011;25567;48.276;14.242;2023-09-18T11:15:59;9.13;;;4.60;;
39896;SDS011;25567;48.276;14.242;2023-09-18T11:18:32;7.43;;;4.75;;
39896;SDS011;25567;48.276;14.242;2023-09-18T11:23:35;7.82;;;4.97;;
39896;SDS011;25567;48.276;14.242;2023-09-18T11:26:04;6.60;;;4.72;;
39896;SDS011;25567;48.276;14.242;2023-09-18T11:28:32;11.57;;;5.38;;
39896;SDS011;25567;48.276;14.242;2023-09-18T11:31:00;11.32;;;5.28;;
39896;SDS011;25567;48.276;14.242;2023-09-18T11:33:31;10.15;;;5.03;;
39896;SDS011;25567;48.276;14.242;2023-09-18T11:36:02;13.52;;;4.85;;
39896;SDS011;25567;48.276;14.242;2023-09-18T11:38:29;10.63;;;5.18;;
39896;SDS011;25567;48.276;14.242;2023-09-18T11:40:56;11.20;;;5.28;;
39896;SDS011;25567;48.276;14.242;2023-09-18T11:43:25;6.70;;;4.50;;
39896;SDS011;25567;48.276;14.242;2023-09-18T11:45:53;14.57;;;5.43;;
39896;SDS011;25567;48.276;14.242;2023-09-18T11:48:21;10.32;;;5.13;;
39896;SDS011;25567;48.276;14.242;2023-09-18T11:50:50;8.13;;;5.13;;
39896;SDS011;25567;48.276;14.242;2023-09-18T11:53:17;14.98;;;5.57;;
39896;SDS011;25567;48.276;14.242;2023-09-18T11:55:47;14.20;;;5.65;;
39896;SDS011;25567;48.276;14.242;2023-09-18T11:58:13;10.80;;;5.10;;
39896;SDS011;25567;48.276;14.242;2023-09-18T12:00:40;9.63;;;4.90;;
39896;SDS011;25567;48.276;14.242;2023-09-18T12:03:22;8.93;;;4.78;;
39896;SDS011;25567;48.276;14.242;2023-09-18T12:05:59;12.20;;;5.22;;
39896;SDS011;25567;48.276;14.242;2023-09-18T12:08:28;11.57;;;5.40;;
39896;SDS011;25567;48.276;14.242;2023-09-18T12:10:57;7.75;;;5.28;;
39896;SDS011;25567;48.276;14.242;2023-09-18T12:13:26;10.02;;;5.07;;
39896;SDS011;25567;48.276;14.242;2023-09-18T12:16:12;7.43;;;4.63;;
39896;SDS011;25567;48.276;14.242;2023-09-18T12:18:44;11.20;;;4.97;;
39896;SDS011;25567;48.276;14.242;2023-09-18T12:21:11;11.15;;;4.50;;
39896;SDS011;25567;48.276;14.242;2023-09-18T12:23:38;9.30;;;4.85;;
39896;SDS011;25567;48.276;14.242;2023-09-18T12:26:05;12.10;;;4.88;;
39896;SDS011;25567;48.276;14.242;2023-09-18T12:28:35;8.93;;;5.00;;
39896;SDS011;25567;48.276;14.242;2023-09-18T12:31:02;12.07;;;4.75;;
39896;SDS011;25567;48.276;14.242;2023-09-18T12:33:33;7.40;;;4.75;;
39896;SDS011;25567;48.276;14.242;2023-09-18T12:36:00;8.68;;;4.50;;
39896;SDS011;25567;48.276;14.242;2023-09-18T12:38:27;10.82;;;5.57;;
39896;SDS011;25567;48.276;14.242;2023-09-18T12:40:54;13.15;;;6.07;;
39896;SDS011;25567;48.276;14.242;2023-09-18T12:43:21;9.52;;;4.70;;
39896;SDS011;25567;48.276;14.242;2023-09-18T12:45:51;10.98;;;5.30;;
39896;SDS011;25567;48.276;14.242;2023-09-18T12:48:19;10.15;;;5.20;;
39896;SDS011;25567;48.276;14.242;2023-09-18T12:50:46;10.43;;;4.55;;
39896;SDS011;25567;48.276;14.242;2023-09-18T12:53:21;9.80;;;4.97;;
39896;SDS011;25567;48.276;14.242;2023-09-18T12:55:48;10.70;;;4.72;;
39896;SDS011;25567;48.276;14.242;2023-09-18T12:58:23;12.82;;;5.43;;
39896;SDS011;25567;48.276;14.242;2023-09-18T13:00:50;9.18;;;5.05;;
39896;SDS011;25567;48.276;14.242;2023-09-18T13:03:17;9.10;;;4.78;;
39896;SDS011;25567;48.276;14.242;2023-09-18T13:05:45;11.20;;;4.97;;
39896;SDS011;25567;48.276;14.242;2023-09-18T13:08:13;7.65;;;4.22;;
39896;SDS011;25567;48.276;14.242;2023-09-18T13:10:47;10.68;;;4.82;;
39896;SDS011;25567;48.276;14.242;2023-09-18T13:13:19;11.75;;;4.85;;
39896;SDS011;25567;48.276;14.242;2023-09-18T13:15:46;9.02;;;4.75;;
39896;SDS011;25567;48.276;14.242;2023-09-18T13:18:14;7.40;;;4.25;;
39896;SDS011;25567;48.276;14.242;2023-09-18T13:20:41;10.20;;;4.10;;
39896;SDS011;25567;48.276;14.242;2023-09-18T13:23:08;10.68;;;4.18;;
39896;SDS011;25567;48.276;14.242;2023-09-18T13:25:36;14.40;;;5.20;;
39896;SDS011;25567;48.276;14.242;2023-09-18T13:28:05;8.35;;;4.70;;
39896;SDS011;25567;48.276;14.242;2023-09-18T13:30:32;12.68;;;4.43;;
39896;SDS011;25567;48.276;14.242;2023-09-18T13:33:02;13.57;;;4.35;;
39896;SDS011;25567;48.276;14.242;2023-09-18T13:35:30;9.75;;;3.60;;
39896;SDS011;25567;48.276;14.242;2023-09-18T13:37:57;10.50;;;4.40;;
39896;SDS011;25567;48.276;14.242;2023-09-18T13:40:23;9.98;;;4.60;;
39896;SDS011;25567;48.276;14.242;2023-09-18T13:42:50;10.95;;;3.90;;
39896;SDS011;25567;48.276;14.242;2023-09-18T13:45:17;14.27;;;4.20;;
39896;SDS011;25567;48.276;14.242;2023-09-18T13:47:44;12.93;;;4.00;;
39896;SDS011;25567;48.276;14.242;2023-09-18T13:50:11;15.20;;;4.13;;
39896;SDS011;25567;48.276;14.242;2023-09-18T13:52:39;10.40;;;4.50;;
39896;SDS011;25567;48.276;14.242;2023-09-18T13:55:06;8.80;;;4.13;;
39896;SDS011;25567;48.276;14.242;2023-09-18T13:57:33;9.05;;;4.35;;
39896;SDS011;25567;48.276;14.242;2023-09-18T14:00:02;20.92;;;5.18;;
39896;SDS011;25567;48.276;14.242;2023-09-18T14:02:33;11.95;;;4.38;;
39896;SDS011;25567;48.276;14.242;2023-09-18T14:04:59;10.95;;;4.47;;
39896;SDS011;25567;48.276;14.242;2023-09-18T14:07:26;18.52;;;4.97;;
39896;SDS011;25567;48.276;14.242;2023-09-18T14:09:52;17.55;;;4.75;;
39896;SDS011;25567;48.276;14.242;2023-09-18T14:12:19;10.65;;;4.65;;
39896;SDS011;25567;48.276;14.242;2023-09-18T14:14:46;12.88;;;4.72;;
39896;SDS011;25567;48.276;14.242;2023-09-18T14:17:13;12.65;;;5.15;;
39896;SDS011;25567;48.276;14.242;2023-09-18T14:19:40;12.52;;;4.95;;
39896;SDS011;25567;48.276;14.242;2023-09-18T14:22:06;12.82;;;6.05;;
39896;SDS011;25567;48.276;14.242;2023-09-18T14:24:33;10.43;;;4.78;;
39896;SDS011;25567;48.276;14.242;2023-09-18T14:27:03;15.32;;;5.28;;
39896;SDS011;25567;48.276;14.242;2023-09-18T14:29:30;9.48;;;4.85;;
39896;SDS011;25567;48.276;14.242;2023-09-18T14:32:00;15.38;;;5.53;;
39896;SDS011;25567;48.276;14.242;2023-09-18T14:34:27;12.55;;;5.35;;